< Typhoon 199622 1996 Season Typhoon 199624 >
Typhoon 199623 (CARLO)
General InformationTrack Information on Google MapsDetailed Wind InformationList of All Images || Disaster Info.ResourceGoogle EarthGE AnimationAtom FeedGeoJSON
Detalied Best Track (Time Zone = UTC)
Year Month Day Hour Lat. Long. Pressure (hPa) Wind (kt) Class Image Chart
1996 10 20 00 16.5 153.1 1008 0 2 Image Chart
1996 10 20 06 16.9 152.2 1006 0 2 Image Chart
1996 10 20 12 17.0 151.2 1006 0 2 Image Chart
1996 10 20 18 17.5 150.0 1006 0 2 Image Chart
1996 10 21 00 18.2 149.5 1006 0 2 Image Chart
1996 10 21 06 18.8 149.1 1004 0 2 Image Chart
1996 10 21 12 19.1 149.0 1002 0 2 Image Chart
1996 10 21 18 19.3 149.0 998 35 3 Image Chart
1996 10 22 00 19.5 148.8 996 35 3 Image Chart
1996 10 22 06 19.7 147.9 994 40 3 Image Chart
1996 10 22 12 19.7 147.0 994 40 3 Image Chart
1996 10 22 18 19.7 146.2 990 45 3 Image Chart
1996 10 23 00 19.9 145.5 985 50 4 Image Chart
1996 10 23 06 20.5 145.1 985 50 4 Image Chart
1996 10 23 12 20.9 144.9 980 55 4 Image Chart
1996 10 23 18 21.5 144.8 980 55 4 Image Chart
1996 10 24 00 22.6 144.9 970 65 5 Image Chart
1996 10 24 06 23.8 145.0 965 70 5 Image Chart
1996 10 24 12 25.2 145.2 965 70 5 Image Chart
1996 10 24 18 26.8 145.5 970 65 5 Image Chart
1996 10 25 00 28.4 146.1 975 60 4 Image Chart
1996 10 25 06 30.1 146.9 980 55 4 Image Chart
1996 10 25 12 31.7 148.2 985 50 4 Image Chart
1996 10 25 18 33.5 150.2 985 50 4 Image Chart
1996 10 26 00 35.2 152.7 990 45 3 Image Chart
1996 10 26 06 37.0 155.1 992 45 3 Image Chart
1996 10 26 12 38.8 157.4 996 0 2 Image Chart
Japan Meteorological Agency Best Track Data | Correction Date : 1997-01-07
< Typhoon 199622 1996 Season Typhoon 199624 >

Help